sensor_id;sensor_type;location;lat;lon;timestamp;pressure;altitude;pressure_sealevel;temperature;humidity
63500;BME280;49654;51.142;14.924;2023-05-16T00:01:24;98568.09;;;11.38;79.38
63500;BME280;49654;51.142;14.924;2023-05-16T00:03:53;98570.84;;;11.23;79.56
63500;BME280;49654;51.142;14.924;2023-05-16T00:06:20;98585.47;;;11.31;80.42
63500;BME280;49654;51.142;14.924;2023-05-16T00:08:47;98598.22;;;11.25;80.69
63500;BME280;49654;51.142;14.924;2023-05-16T00:11:15;98570.03;;;11.22;81.63
63500;BME280;49654;51.142;14.924;2023-05-16T00:13:42;98578.13;;;11.41;81.44
63500;BME280;49654;51.142;14.924;2023-05-16T00:16:11;98585.59;;;11.64;80.69
63500;BME280;49654;51.142;14.924;2023-05-16T00:18:39;98531.69;;;11.38;79.63
63500;BME280;49654;51.142;14.924;2023-05-16T00:21:07;98572.25;;;11.73;78.94
63500;BME280;49654;51.142;14.924;2023-05-16T00:23:34;98471.63;;;11.13;78.29
63500;BME280;49654;51.142;14.924;2023-05-16T00:26:01;98567.38;;;11.64;78.29
63500;BME280;49654;51.142;14.924;2023-05-16T00:28:28;98589.88;;;11.85;77.25
63500;BME280;49654;51.142;14.924;2023-05-16T00:30:55;98604.72;;;11.91;76.49
63500;BME280;49654;51.142;14.924;2023-05-16T00:33:22;98585.44;;;11.78;76.25
63500;BME280;49654;51.142;14.924;2023-05-16T00:35:48;98540.16;;;11.53;76.75
63500;BME280;49654;51.142;14.924;2023-05-16T00:38:17;98449.97;;;10.86;76.74
63500;BME280;49654;51.142;14.924;2023-05-16T00:40:44;98595.44;;;11.75;76.23
63500;BME280;49654;51.142;14.924;2023-05-16T00:43:11;98599.38;;;11.58;76.72
63500;BME280;49654;51.142;14.924;2023-05-16T00:45:38;98560.44;;;11.23;77.02
63500;BME280;49654;51.142;14.924;2023-05-16T00:48:05;98568.03;;;11.24;77.37
63500;BME280;49654;51.142;14.924;2023-05-16T00:50:35;98596.91;;;11.36;77.40
63500;BME280;49654;51.142;14.924;2023-05-16T00:53:02;98614.13;;;11.44;77.84
63500;BME280;49654;51.142;14.924;2023-05-16T00:55:31;98576.25;;;11.28;78.93
63500;BME280;49654;51.142;14.924;2023-05-16T00:57:58;98565.59;;;11.16;79.34
63500;BME280;49654;51.142;14.924;2023-05-16T01:00:25;98601.31;;;11.42;79.75
63500;BME280;49654;51.142;14.924;2023-05-16T01:02:52;98587.72;;;11.40;79.11
63500;BME280;49654;51.142;14.924;2023-05-16T01:05:20;98581.94;;;11.45;78.95
63500;BME280;49654;51.142;14.924;2023-05-16T01:07:47;98587.69;;;11.34;78.84
63500;BME280;49654;51.142;14.924;2023-05-16T01:10:14;98611.75;;;11.49;78.65
63500;BME280;49654;51.142;14.924;2023-05-16T01:12:47;98569.63;;;11.25;78.39
63500;BME280;49654;51.142;14.924;2023-05-16T01:15:21;98597.63;;;11.23;78.95
63500;BME280;49654;51.142;14.924;2023-05-16T01:17:55;98606.66;;;11.27;79.43
63500;BME280;49654;51.142;14.924;2023-05-16T01:20:35;98599.53;;;11.08;78.97
63500;BME280;49654;51.142;14.924;2023-05-16T01:23:08;98617.56;;;11.10;79.49
63500;BME280;49654;51.142;14.924;2023-05-16T01:25:55;98571.19;;;10.78;79.42
63500;BME280;49654;51.142;14.924;2023-05-16T01:28:24;98624.91;;;11.06;79.06
63500;BME280;49654;51.142;14.924;2023-05-16T01:30:51;98613.66;;;10.92;78.36
63500;BME280;49654;51.142;14.924;2023-05-16T01:33:18;98625.66;;;11.00;79.38
63500;BME280;49654;51.142;14.924;2023-05-16T01:35:52;98557.66;;;10.55;79.73
63500;BME280;49654;51.142;14.924;2023-05-16T01:38:24;98622.09;;;11.01;79.65
63500;BME280;49654;51.142;14.924;2023-05-16T01:40:54;98640.59;;;11.19;80.13
63500;BME280;49654;51.142;14.924;2023-05-16T01:43:29;98613.16;;;11.10;80.76
63500;BME280;49654;51.142;14.924;2023-05-16T01:46:02;98629.03;;;11.28;80.47
63500;BME280;49654;51.142;14.924;2023-05-16T01:48:35;98637.31;;;11.45;80.04
63500;BME280;49654;51.142;14.924;2023-05-16T01:51:04;98588.75;;;11.11;79.66
63500;BME280;49654;51.142;14.924;2023-05-16T01:53:36;98598.16;;;11.12;79.56
63500;BME280;49654;51.142;14.924;2023-05-16T01:56:08;98639.81;;;11.25;79.27
63500;BME280;49654;51.142;14.924;2023-05-16T01:58:38;98650.34;;;11.17;79.16
63500;BME280;49654;51.142;14.924;2023-05-16T02:01:05;98645.94;;;11.11;78.63
63500;BME280;49654;51.142;14.924;2023-05-16T02:03:33;98634.78;;;10.89;79.72
63500;BME280;49654;51.142;14.924;2023-05-16T02:06:00;98634.78;;;10.89;79.10
63500;BME280;49654;51.142;14.924;2023-05-16T02:08:27;98633.09;;;10.75;79.52
63500;BME280;49654;51.142;14.924;2023-05-16T02:10:54;98645.38;;;10.88;79.34
63500;BME280;49654;51.142;14.924;2023-05-16T02:13:21;98659.34;;;10.87;80.23
63500;BME280;49654;51.142;14.924;2023-05-16T02:15:49;98668.75;;;10.88;80.33
63500;BME280;49654;51.142;14.924;2023-05-16T02:18:17;98645.53;;;10.80;80.32
63500;BME280;49654;51.142;14.924;2023-05-16T02:20:44;98598.72;;;10.45;80.00
63500;BME280;49654;51.142;14.924;2023-05-16T02:23:12;98653.47;;;10.78;80.33
63500;BME280;49654;51.142;14.924;2023-05-16T02:25:39;98638.84;;;10.70;80.50
63500;BME280;49654;51.142;14.924;2023-05-16T02:28:06;98674.03;;;10.73;79.98
63500;BME280;49654;51.142;14.924;2023-05-16T02:30:33;98662.63;;;10.46;79.97
63500;BME280;49654;51.142;14.924;2023-05-16T02:33:01;98621.03;;;10.03;79.96
63500;BME280;49654;51.142;14.924;2023-05-16T02:35:28;98648.84;;;10.09;80.69
63500;BME280;49654;51.142;14.924;2023-05-16T02:37:55;98662.00;;;10.08;81.28
63500;BME280;49654;51.142;14.924;2023-05-16T02:40:22;98656.97;;;10.06;82.33
63500;BME280;49654;51.142;14.924;2023-05-16T02:42:49;98672.44;;;10.14;82.29
63500;BME280;49654;51.142;14.924;2023-05-16T02:45:16;98671.06;;;10.18;82.80
63500;BME280;49654;51.142;14.924;2023-05-16T02:47:43;98647.03;;;10.10;83.86
63500;BME280;49654;51.142;14.924;2023-05-16T02:50:12;98672.47;;;10.36;84.35
63500;BME280;49654;51.142;14.924;2023-05-16T02:52:38;98666.19;;;10.45;83.99
63500;BME280;49654;51.142;14.924;2023-05-16T02:55:06;98611.78;;;10.15;83.96
63500;BME280;49654;51.142;14.924;2023-05-16T02:57:33;98587.06;;;9.98;83.56
63500;BME280;49654;51.142;14.924;2023-05-16T03:00:00;98686.41;;;10.71;82.83
63500;BME280;49654;51.142;14.924;2023-05-16T03:02:27;98697.97;;;10.68;82.72
63500;BME280;49654;51.142;14.924;2023-05-16T03:04:54;98675.47;;;10.54;82.41
63500;BME280;49654;51.142;14.924;2023-05-16T03:07:22;98693.63;;;10.75;81.77
63500;BME280;49654;51.142;14.924;2023-05-16T03:09:49;98695.22;;;10.76;81.25
63500;BME280;49654;51.142;14.924;2023-05-16T03:12:16;98698.56;;;10.70;81.05
63500;BME280;49654;51.142;14.924;2023-05-16T03:14:43;98699.50;;;10.63;81.84
63500;BME280;49654;51.142;14.924;2023-05-16T03:17:10;98678.66;;;10.56;82.09
63500;BME280;49654;51.142;14.924;2023-05-16T03:19:37;98706.41;;;10.77;82.42
63500;BME280;49654;51.142;14.924;2023-05-16T03:22:04;98718.59;;;10.98;82.20
63500;BME280;49654;51.142;14.924;2023-05-16T03:24:32;98671.72;;;10.85;81.75
63500;BME280;49654;51.142;14.924;2023-05-16T03:26:59;98713.59;;;11.24;81.16
63500;BME280;49654;51.142;14.924;2023-05-16T03:29:28;98706.00;;;11.23;81.08
63500;BME280;49654;51.142;14.924;2023-05-16T03:31:55;98621.75;;;10.83;81.41
63500;BME280;49654;51.142;14.924;2023-05-16T03:34:22;98694.06;;;11.35;81.36
63500;BME280;49654;51.142;14.924;2023-05-16T03:36:49;98701.31;;;11.46;80.83
63500;BME280;49654;51.142;14.924;2023-05-16T03:39:17;98710.63;;;11.62;80.44
63500;BME280;49654;51.142;14.924;2023-05-16T03:41:45;98701.22;;;11.61;79.85
63500;BME280;49654;51.142;14.924;2023-05-16T03:44:12;98702.03;;;11.68;79.49
63500;BME280;49654;51.142;14.924;2023-05-16T03:46:39;98709.47;;;11.71;79.30
63500;BME280;49654;51.142;14.924;2023-05-16T03:49:06;98728.94;;;11.82;79.44
63500;BME280;49654;51.142;14.924;2023-05-16T03:51:33;98730.72;;;11.82;79.89
63500;BME280;49654;51.142;14.924;2023-05-16T03:54:00;98740.41;;;11.94;79.92
63500;BME280;49654;51.142;14.924;2023-05-16T03:56:27;98675.84;;;11.70;79.18
63500;BME280;49654;51.142;14.924;2023-05-16T03:58:55;98678.69;;;11.82;79.15
63500;BME280;49654;51.142;14.924;2023-05-16T04:01:23;98743.53;;;12.24;79.06
63500;BME280;49654;51.142;14.924;2023-05-16T04:03:50;98745.00;;;12.40;78.15
63500;BME280;49654;51.142;14.924;2023-05-16T04:06:17;98728.19;;;12.43;77.15
63500;BME280;49654;51.142;14.924;2023-05-16T04:08:44;98752.06;;;12.66;77.18
63500;BME280;49654;51.142;14.924;2023-05-16T04:11:11;98764.91;;;12.74;77.12
63500;BME280;49654;51.142;14.924;2023-05-16T04:13:38;98755.50;;;12.73;77.22
63500;BME280;49654;51.142;14.924;2023-05-16T04:16:07;98774.72;;;12.79;77.14
63500;BME280;49654;51.142;14.924;2023-05-16T04:18:34;98766.50;;;12.75;76.65
63500;BME280;49654;51.142;14.924;2023-05-16T04:21:02;98780.94;;;12.78;76.75
63500;BME280;49654;51.142;14.924;2023-05-16T04:23:29;98758.06;;;12.60;76.76
63500;BME280;49654;51.142;14.924;2023-05-16T04:25:56;98798.81;;;12.81;76.82
63500;BME280;49654;51.142;14.924;2023-05-16T04:28:24;98803.84;;;12.96;76.84
63500;BME280;49654;51.142;14.924;2023-05-16T04:30:51;98791.56;;;12.70;77.64
63500;BME280;49654;51.142;14.924;2023-05-16T04:33:20;98781.53;;;12.80;77.05
63500;BME280;49654;51.142;14.924;2023-05-16T04:35:48;98822.06;;;12.89;77.27
63500;BME280;49654;51.142;14.924;2023-05-16T04:38:15;98798.00;;;12.87;77.26
63500;BME280;49654;51.142;14.924;2023-05-16T04:40:42;98812.44;;;12.90;77.09
63500;BME280;49654;51.142;14.924;2023-05-16T04:43:09;98819.03;;;12.79;77.95
63500;BME280;49654;51.142;14.924;2023-05-16T04:45:35;98784.16;;;12.73;77.56
63500;BME280;49654;51.142;14.924;2023-05-16T04:48:03;98805.25;;;12.98;77.04
63500;BME280;49654;51.142;14.924;2023-05-16T04:50:31;98789.81;;;13.17;76.51
63500;BME280;49654;51.142;14.924;2023-05-16T04:52:58;98808.50;;;13.27;76.41
63500;BME280;49654;51.142;14.924;2023-05-16T04:55:25;98810.50;;;13.32;76.28
63500;BME280;49654;51.142;14.924;2023-05-16T04:57:52;98801.47;;;13.34;75.61
63500;BME280;49654;51.142;14.924;2023-05-16T05:00:19;98817.91;;;13.61;74.89
63500;BME280;49654;51.142;14.924;2023-05-16T05:02:46;98797.88;;;13.42;74.99
63500;BME280;49654;51.142;14.924;2023-05-16T05:05:13;98778.41;;;13.38;74.49
63500;BME280;49654;51.142;14.924;2023-05-16T05:07:41;98818.72;;;13.75;74.47
63500;BME280;49654;51.142;14.924;2023-05-16T05:10:09;98732.50;;;13.23;73.78
63500;BME280;49654;51.142;14.924;2023-05-16T05:12:36;98820.31;;;13.69;74.81
63500;BME280;49654;51.142;14.924;2023-05-16T05:15:04;98824.94;;;13.61;75.19
63500;BME280;49654;51.142;14.924;2023-05-16T05:17:31;98764.38;;;13.25;75.50
63500;BME280;49654;51.142;14.924;2023-05-16T05:19:58;98827.31;;;13.89;75.03
63500;BME280;49654;51.142;14.924;2023-05-16T05:22:25;98832.16;;;13.85;74.58
63500;BME280;49654;51.142;14.924;2023-05-16T05:24:53;98828.09;;;14.02;73.74
63500;BME280;49654;51.142;14.924;2023-05-16T05:27:20;98826.47;;;14.15;73.09
63500;BME280;49654;51.142;14.924;2023-05-16T05:29:47;98838.47;;;14.29;72.36
63500;BME280;49654;51.142;14.924;2023-05-16T05:32:14;98831.69;;;14.08;72.84
63500;BME280;49654;51.142;14.924;2023-05-16T05:34:41;98842.09;;;14.28;71.83
63500;BME280;49654;51.142;14.924;2023-05-16T05:37:08;98847.94;;;14.23;72.33
63500;BME280;49654;51.142;14.924;2023-05-16T05:39:35;98862.38;;;14.26;71.82
63500;BME280;49654;51.142;14.924;2023-05-16T05:42:03;98862.91;;;14.55;72.17
63500;BME280;49654;51.142;14.924;2023-05-16T05:44:30;98876.69;;;14.75;71.71
63500;BME280;49654;51.142;14.924;2023-05-16T05:46:58;98873.84;;;14.83;71.06
63500;BME280;49654;51.142;14.924;2023-05-16T05:49:25;98877.81;;;14.99;70.05
63500;BME280;49654;51.142;14.924;2023-05-16T05:51:52;98876.75;;;15.38;69.70
63500;BME280;49654;51.142;14.924;2023-05-16T05:54:19;98836.22;;;14.84;69.20
63500;BME280;49654;51.142;14.924;2023-05-16T05:56:46;98891.66;;;14.99;68.24
63500;BME280;49654;51.142;14.924;2023-05-16T05:59:15;98882.25;;;14.34;71.00
63500;BME280;49654;51.142;14.924;2023-05-16T06:01:41;98884.63;;;14.42;70.97
63500;BME280;49654;51.142;14.924;2023-05-16T06:04:09;98878.66;;;14.28;71.42
63500;BME280;49654;51.142;14.924;2023-05-16T06:06:37;98877.09;;;14.14;73.38
63500;BME280;49654;51.142;14.924;2023-05-16T06:09:04;98870.06;;;14.14;72.81
63500;BME280;49654;51.142;14.924;2023-05-16T06:11:31;98855.34;;;14.26;71.66
63500;BME280;49654;51.142;14.924;2023-05-16T06:13:58;98881.31;;;14.80;70.73
63500;BME280;49654;51.142;14.924;2023-05-16T06:16:27;98879.53;;;14.73;69.79
63500;BME280;49654;51.142;14.924;2023-05-16T06:18:53;98886.47;;;14.93;69.60
63500;BME280;49654;51.142;14.924;2023-05-16T06:21:20;98892.72;;;14.85;69.27
63500;BME280;49654;51.142;14.924;2023-05-16T06:23:48;98887.38;;;14.67;70.61
63500;BME280;49654;51.142;14.924;2023-05-16T06:26:14;98870.69;;;15.06;69.51
63500;BME280;49654;51.142;14.924;2023-05-16T06:28:41;98901.44;;;15.11;68.38
63500;BME280;49654;51.142;14.924;2023-05-16T06:31:08;98890.91;;;14.86;68.11
63500;BME280;49654;51.142;14.924;2023-05-16T06:33:36;98888.75;;;14.83;68.47
63500;BME280;49654;51.142;14.924;2023-05-16T06:36:04;98865.94;;;14.96;68.97
63500;BME280;49654;51.142;14.924;2023-05-16T06:38:31;98886.22;;;15.33;69.00
63500;BME280;49654;51.142;14.924;2023-05-16T06:40:58;98894.63;;;15.41;66.92
63500;BME280;49654;51.142;14.924;2023-05-16T06:43:25;98856.13;;;14.85;66.70
63500;BME280;49654;51.142;14.924;2023-05-16T06:45:52;98915.13;;;15.13;67.48
63500;BME280;49654;51.142;14.924;2023-05-16T06:48:19;98884.97;;;15.10;68.26
63500;BME280;49654;51.142;14.924;2023-05-16T06:50:48;98918.25;;;14.90;68.68
63500;BME280;49654;51.142;14.924;2023-05-16T06:53:16;98890.19;;;14.72;68.84
63500;BME280;49654;51.142;14.924;2023-05-16T06:55:43;98887.63;;;14.59;69.00
63500;BME280;49654;51.142;14.924;2023-05-16T06:58:10;98910.28;;;14.71;68.73
63500;BME280;49654;51.142;14.924;2023-05-16T07:00:37;98908.13;;;14.42;70.33
63500;BME280;49654;51.142;14.924;2023-05-16T07:03:04;98921.81;;;14.37;70.67
63500;BME280;49654;51.142;14.924;2023-05-16T07:05:31;98903.13;;;14.34;70.58
63500;BME280;49654;51.142;14.924;2023-05-16T07:07:59;98915.56;;;14.65;71.09
63500;BME280;49654;51.142;14.924;2023-05-16T07:10:26;98909.50;;;14.64;70.03
63500;BME280;49654;51.142;14.924;2023-05-16T07:12:53;98915.50;;;14.71;70.07
63500;BME280;49654;51.142;14.924;2023-05-16T07:15:21;98790.00;;;13.82;70.04
63500;BME280;49654;51.142;14.924;2023-05-16T07:17:48;98919.56;;;14.67;70.35
63500;BME280;49654;51.142;14.924;2023-05-16T07:20:15;98916.81;;;14.36;69.74
63500;BME280;49654;51.142;14.924;2023-05-16T07:22:42;98923.41;;;14.45;70.49
63500;BME280;49654;51.142;14.924;2023-05-16T07:25:10;98911.78;;;14.34;68.98
63500;BME280;49654;51.142;14.924;2023-05-16T07:27:39;98917.63;;;14.16;69.79
63500;BME280;49654;51.142;14.924;2023-05-16T07:30:10;98918.75;;;14.60;69.17
63500;BME280;49654;51.142;14.924;2023-05-16T07:32:37;98913.16;;;14.57;68.06
63500;BME280;49654;51.142;14.924;2023-05-16T07:35:05;98920.56;;;14.60;68.21
63500;BME280;49654;51.142;14.924;2023-05-16T07:37:32;98911.34;;;14.57;68.29
63500;BME280;49654;51.142;14.924;2023-05-16T07:39:59;98914.16;;;14.62;67.71
63500;BME280;49654;51.142;14.924;2023-05-16T07:42:27;98909.19;;;14.27;70.59
63500;BME280;49654;51.142;14.924;2023-05-16T07:44:54;98905.13;;;14.51;68.97
63500;BME280;49654;51.142;14.924;2023-05-16T07:47:21;98909.53;;;14.58;68.90
63500;BME280;49654;51.142;14.924;2023-05-16T07:49:48;98920.38;;;14.61;67.71
63500;BME280;49654;51.142;14.924;2023-05-16T07:52:15;98927.25;;;14.49;67.41
63500;BME280;49654;51.142;14.924;2023-05-16T07:54:44;98943.56;;;13.98;69.79
63500;BME280;49654;51.142;14.924;2023-05-16T07:57:12;98929.09;;;13.49;70.75
63500;BME280;49654;51.142;14.924;2023-05-16T07:59:41;98965.84;;;13.67;71.52
63500;BME280;49654;51.142;14.924;2023-05-16T08:02:08;98969.47;;;13.73;71.43
63500;BME280;49654;51.142;14.924;2023-05-16T08:04:36;98969.84;;;13.70;70.89
63500;BME280;49654;51.142;14.924;2023-05-16T08:07:03;98972.88;;;13.87;71.68
63500;BME280;49654;51.142;14.924;2023-05-16T08:09:30;98973.88;;;13.99;71.97
63500;BME280;49654;51.142;14.924;2023-05-16T08:11:57;98981.91;;;13.91;70.90
63500;BME280;49654;51.142;14.924;2023-05-16T08:14:29;98998.41;;;13.98;71.94
63500;BME280;49654;51.142;14.924;2023-05-16T08:16:58;99004.81;;;13.95;70.63
63500;BME280;49654;51.142;14.924;2023-05-16T08:19:25;99006.63;;;13.75;71.34
63500;BME280;49654;51.142;14.924;2023-05-16T08:21:52;98996.38;;;13.80;70.81
63500;BME280;49654;51.142;14.924;2023-05-16T08:24:19;99009.75;;;13.50;71.89
63500;BME280;49654;51.142;14.924;2023-05-16T08:26:46;99016.63;;;13.78;71.54
63500;BME280;49654;51.142;14.924;2023-05-16T08:29:12;99004.97;;;13.61;71.29
63500;BME280;49654;51.142;14.924;2023-05-16T08:31:39;99010.22;;;13.94;71.42
63500;BME280;49654;51.142;14.924;2023-05-16T08:34:08;98994.91;;;13.51;72.24
63500;BME280;49654;51.142;14.924;2023-05-16T08:36:35;99009.00;;;13.76;71.34
63500;BME280;49654;51.142;14.924;2023-05-16T08:39:02;99003.59;;;13.85;70.61
63500;BME280;49654;51.142;14.924;2023-05-16T08:41:29;99017.66;;;14.03;70.56
63500;BME280;49654;51.142;14.924;2023-05-16T08:43:56;99019.88;;;14.33;69.49
63500;BME280;49654;51.142;14.924;2023-05-16T08:46:24;99009.22;;;13.95;69.04
63500;BME280;49654;51.142;14.924;2023-05-16T08:48:53;99034.94;;;14.11;69.92
63500;BME280;49654;51.142;14.924;2023-05-16T08:51:24;99027.50;;;14.21;69.52
63500;BME280;49654;51.142;14.924;2023-05-16T08:53:56;99029.91;;;14.29;68.70
63500;BME280;49654;51.142;14.924;2023-05-16T08:56:23;99032.75;;;14.48;67.82
63500;BME280;49654;51.142;14.924;2023-05-16T08:58:51;98976.88;;;13.83;67.68
63500;BME280;49654;51.142;14.924;2023-05-16T09:01:20;99051.19;;;13.87;69.68
63500;BME280;49654;51.142;14.924;2023-05-16T09:03:48;99045.31;;;13.58;69.90
63500;BME280;49654;51.142;14.924;2023-05-16T09:06:15;99027.44;;;13.62;69.62
63500;BME280;49654;51.142;14.924;2023-05-16T09:08:44;99055.22;;;13.89;69.53
63500;BME280;49654;51.142;14.924;2023-05-16T09:11:11;99065.06;;;13.94;69.35
63500;BME280;49654;51.142;14.924;2023-05-16T09:13:38;99067.25;;;13.84;69.13
63500;BME280;49654;51.142;14.924;2023-05-16T09:16:10;99061.00;;;13.78;69.75
63500;BME280;49654;51.142;14.924;2023-05-16T09:18:38;99034.88;;;13.58;69.39
63500;BME280;49654;51.142;14.924;2023-05-16T09:21:05;98970.59;;;13.44;70.20
63500;BME280;49654;51.142;14.924;2023-05-16T09:23:33;99049.81;;;14.11;68.82
63500;BME280;49654;51.142;14.924;2023-05-16T09:26:02;99048.19;;;14.03;68.58
63500;BME280;49654;51.142;14.924;2023-05-16T09:28:32;99048.38;;;13.88;70.09
63500;BME280;49654;51.142;14.924;2023-05-16T09:30:59;99050.63;;;14.38;68.57
63500;BME280;49654;51.142;14.924;2023-05-16T09:33:27;99062.66;;;14.25;68.28
63500;BME280;49654;51.142;14.924;2023-05-16T09:35:56;99060.69;;;14.67;68.24
63500;BME280;49654;51.142;14.924;2023-05-16T09:38:23;99046.63;;;14.22;68.04
63500;BME280;49654;51.142;14.924;2023-05-16T09:40:51;99063.09;;;14.22;68.83
63500;BME280;49654;51.142;14.924;2023-05-16T09:43:23;99065.66;;;13.96;69.26
63500;BME280;49654;51.142;14.924;2023-05-16T09:45:51;99066.75;;;13.47;70.17
63500;BME280;49654;51.142;14.924;2023-05-16T09:48:20;99064.91;;;13.41;71.09
63500;BME280;49654;51.142;14.924;2023-05-16T09:50:50;99081.69;;;13.80;71.01
63500;BME280;49654;51.142;14.924;2023-05-16T09:53:24;99089.13;;;13.28;72.48
63500;BME280;49654;51.142;14.924;2023-05-16T09:55:58;99094.06;;;13.16;72.75
63500;BME280;49654;51.142;14.924;2023-05-16T09:58:29;99094.13;;;12.95;73.18
63500;BME280;49654;51.142;14.924;2023-05-16T10:00:56;99092.78;;;13.06;73.43
63500;BME280;49654;51.142;14.924;2023-05-16T10:03:24;99089.94;;;13.28;72.43
63500;BME280;49654;51.142;14.924;2023-05-16T10:05:52;99096.88;;;13.21;71.90
63500;BME280;49654;51.142;14.924;2023-05-16T10:08:20;99126.28;;;13.09;72.89
63500;BME280;49654;51.142;14.924;2023-05-16T10:10:49;99128.88;;;13.02;73.03
63500;BME280;49654;51.142;14.924;2023-05-16T10:13:18;99125.06;;;13.33;73.52
63500;BME280;49654;51.142;14.924;2023-05-16T10:15:47;99125.28;;;13.10;73.12
63500;BME280;49654;51.142;14.924;2023-05-16T10:18:15;99126.72;;;13.12;73.99
63500;BME280;49654;51.142;14.924;2023-05-16T10:20:44;99129.47;;;13.32;72.90
63500;BME280;49654;51.142;14.924;2023-05-16T10:23:16;99124.91;;;13.41;72.01
63500;BME280;49654;51.142;14.924;2023-05-16T10:25:44;99123.59;;;13.58;72.36
63500;BME280;49654;51.142;14.924;2023-05-16T10:28:11;99123.34;;;13.53;70.61
63500;BME280;49654;51.142;14.924;2023-05-16T10:30:40;99121.47;;;13.40;71.50
63500;BME280;49654;51.142;14.924;2023-05-16T10:33:11;99108.56;;;13.67;71.05
63500;BME280;49654;51.142;14.924;2023-05-16T10:35:38;99122.56;;;13.59;70.30
63500;BME280;49654;51.142;14.924;2023-05-16T10:38:06;99100.47;;;13.55;69.91
63500;BME280;49654;51.142;14.924;2023-05-16T10:40:34;99105.38;;;13.30;71.19
63500;BME280;49654;51.142;14.924;2023-05-16T10:43:03;99108.19;;;13.76;71.10
63500;BME280;49654;51.142;14.924;2023-05-16T10:45:31;99070.59;;;13.64;69.72
63500;BME280;49654;51.142;14.924;2023-05-16T10:47:59;99109.69;;;14.25;68.16
63500;BME280;49654;51.142;14.924;2023-05-16T10:50:37;99083.56;;;14.06;68.45
63500;BME280;49654;51.142;14.924;2023-05-16T10:53:13;99108.00;;;13.85;68.79
63500;BME280;49654;51.142;14.924;2023-05-16T10:55:43;99115.28;;;13.48;69.95
63500;BME280;49654;51.142;14.924;2023-05-16T10:58:10;99113.47;;;13.42;70.81
63500;BME280;49654;51.142;14.924;2023-05-16T11:00:38;99103.75;;;13.77;70.18
63500;BME280;49654;51.142;14.924;2023-05-16T11:03:21;99106.38;;;13.70;70.01
63500;BME280;49654;51.142;14.924;2023-05-16T11:05:58;99067.06;;;13.31;70.18
63500;BME280;49654;51.142;14.924;2023-05-16T11:08:26;99116.19;;;13.68;69.60
63500;BME280;49654;51.142;14.924;2023-05-16T11:13:54;99105.69;;;13.55;69.58
63500;BME280;49654;51.142;14.924;2023-05-16T11:16:28;99111.28;;;13.45;70.60
63500;BME280;49654;51.142;14.924;2023-05-16T11:19:03;99115.81;;;13.78;70.08
63500;BME280;49654;51.142;14.924;2023-05-16T11:24:55;99075.06;;;13.70;68.17
63500;BME280;49654;51.142;14.924;2023-05-16T11:27:25;99113.66;;;13.88;68.32
63500;BME280;49654;51.142;14.924;2023-05-16T11:29:53;99114.44;;;13.34;69.96
63500;BME280;49654;51.142;14.924;2023-05-16T11:32:22;99120.50;;;13.41;70.33
63500;BME280;49654;51.142;14.924;2023-05-16T11:34:49;99076.97;;;13.14;70.92
63500;BME280;49654;51.142;14.924;2023-05-16T11:37:17;99109.31;;;13.19;70.18
63500;BME280;49654;51.142;14.924;2023-05-16T11:39:45;99112.31;;;13.51;70.79
63500;BME280;49654;51.142;14.924;2023-05-16T11:42:14;99115.97;;;13.63;70.65
63500;BME280;49654;51.142;14.924;2023-05-16T11:44:41;99109.31;;;13.61;69.05
63500;BME280;49654;51.142;14.924;2023-05-16T11:47:07;99138.38;;;13.51;69.78
63500;BME280;49654;51.142;14.924;2023-05-16T11:49:35;99066.91;;;13.32;70.17
63500;BME280;49654;51.142;14.924;2023-05-16T11:52:02;99116.72;;;13.57;70.06
63500;BME280;49654;51.142;14.924;2023-05-16T11:54:29;99124.38;;;13.59;70.16
63500;BME280;49654;51.142;14.924;2023-05-16T11:56:56;99107.25;;;13.08;70.62
63500;BME280;49654;51.142;14.924;2023-05-16T11:59:25;99086.09;;;12.62;72.49
63500;BME280;49654;51.142;14.924;2023-05-16T12:01:52;99061.97;;;12.81;72.33
63500;BME280;49654;51.142;14.924;2023-05-16T12:04:19;99105.25;;;13.10;72.09
63500;BME280;49654;51.142;14.924;2023-05-16T12:06:57;99120.19;;;13.23;71.33
63500;BME280;49654;51.142;14.924;2023-05-16T12:09:25;99122.63;;;13.24;71.25
63500;BME280;49654;51.142;14.924;2023-05-16T12:11:52;99108.34;;;12.92;73.04
63500;BME280;49654;51.142;14.924;2023-05-16T12:14:19;99112.97;;;13.25;72.59
63500;BME280;49654;51.142;14.924;2023-05-16T12:16:50;99121.09;;;13.37;71.86
63500;BME280;49654;51.142;14.924;2023-05-16T12:19:18;99111.88;;;13.47;71.37
63500;BME280;49654;51.142;14.924;2023-05-16T12:21:45;99148.88;;;13.64;71.94
63500;BME280;49654;51.142;14.924;2023-05-16T12:24:12;99150.75;;;13.36;71.56
63500;BME280;49654;51.142;14.924;2023-05-16T12:26:40;99133.28;;;13.30;71.47
63500;BME280;49654;51.142;14.924;2023-05-16T12:29:08;99135.50;;;13.33;71.20
63500;BME280;49654;51.142;14.924;2023-05-16T12:31:37;99147.94;;;13.02;71.85
63500;BME280;49654;51.142;14.924;2023-05-16T12:34:15;99150.38;;;13.11;73.29
63500;BME280;49654;51.142;14.924;2023-05-16T12:36:42;99154.31;;;13.00;72.88
63500;BME280;49654;51.142;14.924;2023-05-16T12:39:11;99115.50;;;12.84;73.34
63500;BME280;49654;51.142;14.924;2023-05-16T12:41:40;99135.72;;;13.10;73.19
63500;BME280;49654;51.142;14.924;2023-05-16T12:44:10;99128.97;;;13.22;72.98
63500;BME280;49654;51.142;14.924;2023-05-16T12:46:42;99146.69;;;13.26;72.33
63500;BME280;49654;51.142;14.924;2023-05-16T12:49:10;99147.56;;;13.12;72.50
63500;BME280;49654;51.142;14.924;2023-05-16T12:51:39;99158.34;;;13.02;73.23
63500;BME280;49654;51.142;14.924;2023-05-16T12:54:08;99121.41;;;12.71;73.94
63500;BME280;49654;51.142;14.924;2023-05-16T12:56:37;99149.47;;;12.97;74.78
63500;BME280;49654;51.142;14.924;2023-05-16T12:59:03;99158.59;;;13.08;74.41
63500;BME280;49654;51.142;14.924;2023-05-16T13:01:30;99162.97;;;13.28;74.28